createdAt,value
2022-11-24T00:01:28.148Z,1.30
2022-11-24T00:04:02.225Z,1.30
2022-11-24T00:06:29.256Z,1.50
2022-11-24T00:08:55.943Z,1.73
2022-11-24T00:11:24.431Z,1.27
2022-11-24T00:13:51.078Z,1.50
2022-11-24T00:16:19.425Z,1.30
2022-11-24T00:18:47.116Z,1.17
2022-11-24T00:21:14.451Z,1.33
2022-11-24T00:23:41.239Z,1.57
2022-11-24T00:26:12.668Z,1.40
2022-11-24T00:28:39.351Z,1.27
2022-11-24T00:31:17.016Z,1.57
2022-11-24T00:33:44.296Z,1.13
2022-11-24T00:36:10.871Z,1.20
2022-11-24T00:38:37.452Z,1.43
2022-11-24T00:41:04.021Z,1.20
2022-11-24T00:43:30.593Z,1.23
2022-11-24T00:45:57.257Z,1.60
2022-11-24T00:48:23.900Z,1.40
2022-11-24T00:51:04.679Z,1.30
2022-11-24T00:53:31.284Z,1.50
2022-11-24T00:55:57.845Z,1.20
2022-11-24T00:58:24.590Z,1.40
2022-11-24T01:00:51.530Z,1.20
2022-11-24T01:03:18.906Z,1.17
2022-11-24T01:05:45.534Z,1.50
2022-11-24T01:08:12.176Z,1.40
2022-11-24T01:10:38.749Z,1.43
2022-11-24T01:13:05.382Z,1.60
2022-11-24T01:15:32.068Z,1.57
2022-11-24T01:17:58.706Z,2.07
2022-11-24T01:20:25.269Z,1.57
2022-11-24T01:22:51.838Z,1.67
2022-11-24T01:25:18.409Z,1.63
2022-11-24T01:27:45.014Z,2.30
2022-11-24T01:30:11.771Z,1.87
2022-11-24T01:32:38.357Z,1.90
2022-11-24T01:35:05.270Z,2.00
2022-11-24T01:37:31.897Z,1.97
2022-11-24T01:39:58.564Z,2.00
2022-11-24T01:42:25.213Z,1.60
2022-11-24T01:45:12.281Z,1.80
2022-11-24T01:47:40.706Z,1.90
2022-11-24T01:50:10.154Z,2.00
2022-11-24T01:52:41.732Z,2.10
2022-11-24T01:55:14.366Z,2.27
2022-11-24T01:57:46.389Z,1.80
2022-11-24T02:00:13.689Z,2.23
2022-11-24T02:02:40.264Z,2.17
2022-11-24T02:05:10.437Z,1.80
2022-11-24T02:07:37.081Z,2.00
2022-11-24T02:10:13.964Z,1.70
2022-11-24T02:12:41.918Z,1.90
2022-11-24T02:15:09.043Z,1.80
2022-11-24T02:17:35.754Z,1.47
2022-11-24T02:20:04.815Z,1.90
2022-11-24T02:22:44.450Z,1.63
2022-11-24T02:25:20.439Z,1.80
2022-11-24T02:27:52.267Z,1.47
2022-11-24T02:30:20.398Z,1.80
2022-11-24T02:32:46.961Z,1.67
2022-11-24T02:35:13.817Z,2.03
2022-11-24T02:37:40.403Z,1.87
2022-11-24T02:40:07.803Z,1.83
2022-11-24T02:42:39.821Z,1.60
2022-11-24T02:45:06.949Z,1.43
2022-11-24T02:47:33.510Z,1.70
2022-11-24T02:50:00.094Z,1.80
2022-11-24T02:52:26.682Z,2.13
2022-11-24T02:54:53.268Z,1.90
2022-11-24T02:57:19.837Z,1.63
2022-11-24T02:59:46.576Z,1.80
2022-11-24T03:02:13.132Z,1.50
2022-11-24T03:04:39.719Z,2.20
2022-11-24T03:07:06.495Z,2.27
2022-11-24T03:09:33.107Z,2.37
2022-11-24T03:11:59.676Z,1.67
2022-11-24T03:14:26.290Z,1.87
2022-11-24T03:16:52.853Z,1.70
2022-11-24T03:19:19.431Z,1.80
2022-11-24T03:21:45.984Z,1.80
2022-11-24T03:24:12.562Z,1.60
2022-11-24T03:26:39.150Z,2.10
2022-11-24T03:29:05.715Z,2.37
2022-11-24T03:31:32.361Z,1.80
2022-11-24T03:33:58.967Z,1.80
2022-11-24T03:36:25.679Z,2.03
2022-11-24T03:38:52.253Z,2.27
2022-11-24T03:41:18.833Z,1.93
2022-11-24T03:43:45.394Z,2.83
2022-11-24T03:46:12.327Z,2.50
2022-11-24T03:48:39.082Z,2.37
2022-11-24T03:51:05.809Z,2.00
2022-11-24T03:53:33.474Z,2.77
2022-11-24T03:56:00.101Z,2.47
2022-11-24T03:58:26.660Z,2.70
2022-11-24T04:00:53.551Z,2.43
2022-11-24T04:03:20.214Z,2.50
2022-11-24T04:05:47.023Z,2.43
2022-11-24T04:08:13.880Z,2.70
2022-11-24T04:10:40.488Z,2.70
2022-11-24T04:13:15.045Z,2.30
2022-11-24T04:15:41.989Z,2.17
2022-11-24T04:18:09.465Z,2.37
2022-11-24T04:20:36.303Z,2.23
2022-11-24T04:23:02.958Z,2.20
2022-11-24T04:25:30.304Z,1.80
2022-11-24T04:27:56.921Z,1.90
2022-11-24T04:30:23.982Z,1.90
2022-11-24T04:32:50.745Z,1.60
2022-11-24T04:35:17.430Z,2.20
2022-11-24T04:37:44.001Z,2.07
2022-11-24T04:40:11.228Z,2.33
2022-11-24T04:42:37.806Z,2.00
2022-11-24T04:45:05.735Z,1.97
2022-11-24T04:47:32.392Z,2.23
2022-11-24T04:49:58.986Z,2.20
2022-11-24T04:52:25.686Z,1.70
2022-11-24T04:54:52.299Z,1.83
2022-11-24T04:57:20.901Z,2.00
2022-11-24T04:59:47.525Z,2.20
2022-11-24T05:02:14.129Z,2.43
2022-11-24T05:04:40.853Z,2.27
2022-11-24T05:07:07.655Z,1.80
2022-11-24T05:09:58.076Z,1.57
2022-11-24T05:12:20.833Z,1.30
2022-11-24T05:14:47.421Z,1.53
2022-11-24T05:17:14.015Z,1.23
2022-11-24T05:19:40.572Z,1.10
2022-11-24T05:22:07.145Z,0.97
2022-11-24T05:24:33.900Z,1.17
2022-11-24T05:27:00.541Z,1.27
2022-11-24T05:29:27.395Z,1.03
2022-11-24T05:31:53.971Z,1.10
2022-11-24T05:34:20.706Z,1.10
2022-11-24T05:36:53.146Z,1.00
2022-11-24T05:39:20.292Z,1.10
2022-11-24T05:41:46.874Z,1.57
2022-11-24T05:44:13.441Z,1.13
2022-11-24T05:46:40.154Z,1.00
2022-11-24T05:49:06.768Z,1.17
2022-11-24T05:51:33.365Z,1.00
2022-11-24T05:53:59.925Z,0.80
2022-11-24T05:56:26.517Z,0.73
2022-11-24T05:58:53.076Z,1.30
2022-11-24T06:01:19.683Z,1.20
2022-11-24T06:03:46.246Z,1.67
2022-11-24T06:06:12.817Z,1.30
2022-11-24T06:08:39.383Z,1.10
2022-11-24T06:11:18.287Z,0.90
2022-11-24T06:13:45.360Z,1.07
2022-11-24T06:16:12.556Z,1.53
2022-11-24T06:18:39.184Z,0.97
2022-11-24T06:21:12.837Z,1.60
2022-11-24T06:23:39.784Z,1.33
2022-11-24T06:26:06.461Z,0.93
2022-11-24T06:28:33.016Z,1.27
2022-11-24T06:31:03.330Z,0.90
2022-11-24T06:33:33.947Z,1.20
2022-11-24T06:36:05.397Z,1.33
2022-11-24T06:38:31.995Z,1.20
2022-11-24T06:41:12.980Z,1.10
2022-11-24T06:43:39.559Z,1.00
2022-11-24T06:46:06.540Z,1.23
2022-11-24T06:48:33.249Z,1.30
2022-11-24T06:51:07.410Z,1.23
2022-11-24T06:53:37.703Z,1.40
2022-11-24T06:56:15.183Z,1.40
2022-11-24T06:58:44.115Z,1.33
2022-11-24T07:01:17.711Z,1.10
2022-11-24T07:03:44.736Z,1.30
2022-11-24T07:06:11.395Z,1.30
2022-11-24T07:08:37.965Z,1.67
2022-11-24T07:11:06.108Z,1.23
2022-11-24T07:13:32.725Z,1.40
2022-11-24T07:16:00.198Z,1.50
2022-11-24T07:18:26.870Z,1.50
2022-11-24T07:20:53.440Z,1.50
2022-11-24T07:23:20.016Z,1.50
2022-11-24T07:25:46.591Z,1.50
2022-11-24T07:28:13.183Z,1.73
2022-11-24T07:30:39.737Z,1.47
2022-11-24T07:33:06.304Z,1.60
2022-11-24T07:35:32.862Z,1.87
2022-11-24T07:37:59.581Z,1.80
2022-11-24T07:40:26.651Z,1.97
2022-11-24T07:42:53.737Z,1.70
2022-11-24T07:45:20.387Z,1.27
2022-11-24T07:47:46.975Z,1.27
2022-11-24T07:50:13.564Z,1.30
2022-11-24T07:52:40.144Z,1.50
2022-11-24T07:55:07.741Z,1.77
2022-11-24T07:57:34.430Z,1.63
2022-11-24T08:00:00.985Z,1.40
2022-11-24T08:02:27.563Z,1.77
2022-11-24T08:04:54.208Z,1.70
2022-11-24T08:07:21.023Z,1.23
2022-11-24T08:09:48.207Z,1.40
2022-11-24T08:12:16.838Z,1.20
2022-11-24T08:14:43.599Z,1.67
2022-11-24T08:17:10.260Z,1.30
2022-11-24T08:19:36.914Z,1.10
2022-11-24T08:22:03.497Z,1.50
2022-11-24T08:24:31.413Z,1.60
2022-11-24T08:26:58.186Z,1.13
2022-11-24T08:29:28.571Z,1.13
2022-11-24T08:31:57.155Z,1.37
2022-11-24T08:34:24.731Z,1.13
2022-11-24T08:36:51.660Z,1.30
2022-11-24T08:39:18.882Z,1.20
2022-11-24T08:41:45.486Z,1.80
2022-11-24T08:44:15.685Z,1.10
2022-11-24T08:46:42.343Z,1.27
2022-11-24T08:49:09.728Z,1.60
2022-11-24T08:51:36.460Z,1.73
2022-11-24T08:54:03.221Z,1.63
2022-11-24T08:56:30.811Z,1.57
2022-11-24T08:58:57.614Z,1.30
2022-11-24T09:01:24.468Z,1.10
2022-11-24T09:03:51.569Z,1.40
2022-11-24T09:06:19.243Z,1.43
2022-11-24T09:08:45.846Z,1.30
2022-11-24T09:11:13.621Z,1.87
2022-11-24T09:13:40.346Z,1.73
2022-11-24T09:16:08.779Z,1.63
2022-11-24T09:18:35.447Z,1.30
2022-11-24T09:21:15.892Z,1.47
2022-11-24T09:23:42.633Z,1.37
2022-11-24T09:26:30.135Z,1.50
2022-11-24T09:28:57.065Z,1.50
2022-11-24T09:31:25.614Z,1.33
2022-11-24T09:33:52.477Z,1.37
2022-11-24T09:36:19.259Z,1.00
2022-11-24T09:38:45.844Z,1.20
2022-11-24T09:41:33.305Z,1.20
2022-11-24T09:44:08.092Z,1.40
2022-11-24T09:47:08.673Z,1.63
2022-11-24T09:49:46.134Z,1.50
2022-11-24T09:52:16.945Z,1.40
2022-11-24T09:54:53.576Z,1.70
2022-11-24T09:57:20.362Z,1.60
2022-11-24T09:59:46.956Z,1.60
2022-11-24T10:02:13.844Z,1.70
2022-11-24T10:04:42.950Z,1.50
2022-11-24T10:07:12.398Z,1.47
2022-11-24T10:09:45.445Z,1.63
2022-11-24T10:12:47.508Z,1.27
2022-11-24T10:15:22.564Z,1.50
2022-11-24T10:18:16.387Z,1.30
2022-11-24T10:21:04.764Z,1.10
2022-11-24T10:23:43.609Z,1.80
2022-11-24T10:26:19.472Z,1.77
2022-11-24T10:28:57.432Z,1.47
2022-11-24T10:31:35.812Z,1.40
2022-11-24T10:34:19.896Z,1.50
2022-11-24T10:37:14.912Z,1.67
2022-11-24T10:39:53.762Z,1.10
2022-11-24T10:42:29.360Z,1.17
2022-11-24T10:45:14.389Z,1.23
2022-11-24T10:47:41.282Z,1.40
2022-11-24T10:50:27.014Z,1.17
2022-11-24T10:53:15.952Z,1.10
2022-11-24T10:55:57.522Z,1.23
2022-11-24T10:58:32.935Z,1.10
2022-11-24T11:01:12.792Z,1.50
2022-11-24T11:03:49.938Z,1.07
2022-11-24T11:06:21.404Z,1.47
2022-11-24T11:08:47.978Z,1.20
2022-11-24T11:11:29.866Z,1.70
2022-11-24T11:14:03.409Z,1.30
2022-11-24T11:16:58.812Z,1.40
2022-11-24T11:19:50.832Z,1.50
2022-11-24T11:22:26.266Z,1.30
2022-11-24T11:25:19.495Z,1.20
2022-11-24T11:27:46.077Z,1.20
2022-11-24T11:35:48.859Z,1.33
2022-11-24T11:38:15.658Z,1.53
2022-11-24T11:40:43.659Z,1.80
2022-11-24T11:43:15.717Z,1.60
2022-11-24T11:45:44.867Z,1.03
2022-11-24T11:48:15.095Z,1.20
2022-11-24T11:51:22.692Z,1.30
2022-11-24T11:54:25.142Z,1.33
2022-11-24T11:57:11.083Z,1.30
2022-11-24T11:59:46.492Z,1.13
2022-11-24T12:02:32.082Z,1.30
2022-11-24T12:05:02.104Z,1.70
2022-11-24T12:07:48.614Z,1.50
2022-11-24T12:10:41.737Z,1.20
2022-11-24T12:13:23.543Z,1.43
2022-11-24T12:15:54.826Z,1.40
2022-11-24T12:18:59.383Z,1.30
2022-11-24T12:21:34.834Z,1.30
2022-11-24T12:24:04.277Z,1.90
2022-11-24T12:26:35.181Z,1.40
2022-11-24T12:29:36.320Z,1.57
2022-11-24T12:32:11.373Z,1.73
2022-11-24T12:35:16.689Z,1.67
2022-11-24T12:38:08.359Z,1.53
2022-11-24T12:41:25.665Z,1.40
2022-11-24T12:43:52.899Z,1.30
2022-11-24T12:46:38.329Z,1.20
2022-11-24T12:49:21.268Z,1.40
2022-11-24T12:51:51.949Z,1.93
2022-11-24T12:54:19.837Z,1.40
2022-11-24T12:56:59.773Z,1.33
2022-11-24T12:59:52.095Z,1.40
2022-11-24T13:02:37.451Z,1.20
2022-11-24T13:05:31.684Z,1.30
2022-11-24T13:08:02.204Z,0.87
2022-11-24T13:13:18.154Z,1.27
2022-11-24T13:19:00.217Z,1.63
2022-11-24T13:21:35.741Z,1.20
2022-11-24T13:24:06.531Z,1.27
2022-11-24T13:26:41.933Z,1.53
2022-11-24T13:29:30.364Z,1.50
2022-11-24T13:32:02.787Z,1.03
2022-11-24T13:34:42.588Z,0.93
2022-11-24T13:37:31.168Z,1.20
2022-11-24T13:40:23.690Z,1.00
2022-11-24T13:42:57.045Z,0.93
2022-11-24T13:45:43.023Z,1.20
2022-11-24T13:48:22.671Z,1.20
2022-11-24T13:50:58.207Z,1.33
2022-11-24T13:53:44.320Z,1.47
2022-11-24T13:56:14.076Z,1.50
2022-11-24T13:58:44.731Z,1.27
2022-11-24T14:01:18.801Z,1.30
2022-11-24T14:04:27.893Z,1.20
2022-11-24T14:06:46.461Z,1.37
2022-11-24T14:09:29.916Z,1.23
2022-11-24T14:12:13.096Z,1.60
2022-11-24T14:14:40.127Z,1.40
2022-11-24T14:17:18.951Z,1.37
2022-11-24T14:19:47.383Z,1.60
2022-11-24T14:22:44.084Z,1.30
2022-11-24T14:25:36.973Z,1.40
2022-11-24T14:28:03.673Z,1.40
2022-11-24T14:30:30.325Z,1.40
2022-11-24T14:33:00.881Z,1.37
2022-11-24T14:35:31.342Z,1.10
2022-11-24T14:37:58.549Z,1.40
2022-11-24T14:40:51.478Z,1.57
2022-11-24T14:43:22.452Z,1.50
2022-11-24T14:45:53.416Z,1.40
2022-11-24T14:48:23.474Z,1.23
2022-11-24T14:50:50.097Z,1.60
2022-11-24T14:53:16.777Z,1.30
2022-11-24T14:55:43.359Z,1.20
2022-11-24T14:58:21.150Z,1.40
2022-11-24T15:01:08.096Z,1.33
2022-11-24T15:03:34.716Z,1.03
2022-11-24T15:06:02.184Z,1.30
2022-11-24T15:08:37.335Z,1.60
2022-11-24T15:11:04.773Z,1.30
2022-11-24T15:13:37.258Z,1.20
2022-11-24T15:16:06.725Z,1.50
2022-11-24T15:18:42.276Z,1.40
2022-11-24T15:21:11.752Z,1.17
2022-11-24T15:23:42.813Z,1.77
2022-11-24T15:26:12.799Z,1.30
2022-11-24T15:28:40.010Z,1.40
2022-11-24T15:31:09.953Z,1.10
2022-11-24T15:33:36.546Z,1.20
2022-11-24T15:36:03.248Z,1.37
2022-11-24T15:38:30.872Z,1.33
2022-11-24T15:40:59.015Z,1.17
2022-11-24T15:43:38.958Z,1.33
2022-11-24T15:46:07.458Z,1.40
2022-11-24T15:48:34.019Z,1.20
2022-11-24T15:51:02.684Z,1.20
2022-11-24T15:53:35.345Z,1.30
2022-11-24T15:56:02.497Z,1.20
2022-11-24T15:58:29.069Z,1.20
2022-11-24T16:00:55.842Z,1.60
2022-11-24T16:06:12.822Z,1.63
2022-11-24T16:08:39.417Z,1.67
2022-11-24T16:11:06.154Z,1.20
2022-11-24T16:13:32.840Z,1.70
2022-11-24T16:15:59.530Z,1.83
2022-11-24T16:18:26.129Z,1.30
2022-11-24T16:20:52.716Z,1.77
2022-11-24T16:23:19.300Z,2.00
2022-11-24T16:25:45.879Z,2.00
2022-11-24T16:28:12.490Z,1.60
2022-11-24T16:30:39.124Z,1.50
2022-11-24T16:33:06.632Z,1.50
2022-11-24T16:35:33.670Z,1.30
2022-11-24T16:38:00.275Z,1.97
2022-11-24T16:40:26.923Z,1.50
2022-11-24T16:42:53.545Z,1.40
2022-11-24T16:45:20.122Z,1.77
2022-11-24T16:47:46.773Z,1.33
2022-11-24T16:50:13.370Z,1.53
2022-11-24T16:52:39.947Z,1.77
2022-11-24T16:55:06.933Z,1.27
2022-11-24T16:57:33.534Z,1.40
2022-11-24T17:00:00.186Z,1.40
2022-11-24T17:02:26.876Z,1.70
2022-11-24T17:04:53.577Z,1.40
2022-11-24T17:07:20.534Z,1.23
2022-11-24T17:09:47.184Z,1.30
2022-11-24T17:12:13.812Z,1.57
2022-11-24T17:14:40.373Z,1.50
2022-11-24T17:17:06.965Z,1.20
2022-11-24T17:19:33.556Z,1.53
2022-11-24T17:22:00.129Z,1.60
2022-11-24T17:24:26.724Z,1.57
2022-11-24T17:26:53.318Z,1.70
2022-11-24T17:29:19.915Z,1.80
2022-11-24T17:31:46.630Z,1.63
2022-11-24T17:34:13.319Z,1.60
2022-11-24T17:36:41.404Z,1.80
2022-11-24T17:39:08.712Z,1.40
2022-11-24T17:41:35.413Z,1.40
2022-11-24T17:44:02.048Z,1.33
2022-11-24T17:46:29.048Z,1.87
2022-11-24T17:48:55.994Z,1.67
2022-11-24T17:51:23.696Z,1.50
2022-11-24T17:53:51.974Z,1.57
2022-11-24T17:56:20.334Z,1.50
2022-11-24T17:58:46.929Z,1.93
2022-11-24T18:01:13.700Z,1.50
2022-11-24T18:03:41.175Z,1.50
2022-11-24T18:06:11.505Z,1.87
2022-11-24T18:08:39.776Z,1.80
2022-11-24T18:11:14.433Z,1.60
2022-11-24T18:13:56.556Z,1.70
2022-11-24T18:16:28.009Z,1.60
2022-11-24T18:19:07.381Z,1.87
2022-11-24T18:21:35.250Z,1.83
2022-11-24T18:24:01.940Z,1.30
2022-11-24T18:26:28.623Z,1.73
2022-11-24T18:28:55.290Z,1.60
2022-11-24T18:31:22.330Z,1.47
2022-11-24T18:33:49.010Z,1.50
2022-11-24T18:36:17.445Z,1.60
2022-11-24T18:38:44.026Z,1.73
2022-11-24T18:41:11.997Z,1.50
2022-11-24T18:43:38.619Z,1.73
2022-11-24T18:46:06.801Z,2.10
2022-11-24T18:48:33.500Z,1.70
2022-11-24T18:51:00.074Z,1.50
2022-11-24T18:53:26.761Z,1.60
2022-11-24T18:55:56.835Z,1.23
2022-11-24T18:58:24.727Z,1.50
2022-11-24T19:00:52.248Z,1.47
2022-11-24T19:03:18.871Z,1.40
2022-11-24T19:05:45.481Z,1.30
2022-11-24T19:08:12.075Z,1.50
2022-11-24T19:10:38.936Z,1.20
2022-11-24T19:13:05.536Z,1.30
2022-11-24T19:15:33.995Z,1.87
2022-11-24T19:18:01.131Z,1.37
2022-11-24T19:20:28.274Z,1.57
2022-11-24T19:22:54.937Z,1.40
2022-11-24T19:25:21.526Z,1.27
2022-11-24T19:27:48.123Z,1.20
2022-11-24T19:30:16.346Z,1.67
2022-11-24T19:32:42.916Z,1.37
2022-11-24T19:35:09.722Z,1.43
2022-11-24T19:37:36.954Z,1.93
2022-11-24T19:40:04.359Z,1.20
2022-11-24T19:42:30.932Z,1.40
2022-11-24T19:44:57.485Z,1.20
2022-11-24T19:47:24.061Z,1.20
2022-11-24T19:49:50.620Z,1.83
2022-11-24T19:52:17.451Z,1.70
2022-11-24T19:54:44.133Z,1.20
2022-11-24T19:57:10.770Z,1.93
2022-11-24T19:59:37.458Z,1.10
2022-11-24T20:02:04.155Z,1.80
2022-11-24T20:04:32.742Z,1.50
2022-11-24T20:07:00.131Z,1.83
2022-11-24T20:09:26.741Z,1.57
2022-11-24T20:11:53.301Z,1.63
2022-11-24T20:14:20.230Z,1.60
2022-11-24T20:16:47.620Z,1.63
2022-11-24T20:19:15.266Z,1.57
2022-11-24T20:21:45.948Z,1.50
2022-11-24T20:24:19.540Z,1.30
2022-11-24T20:26:48.108Z,1.50
2022-11-24T20:29:14.838Z,1.37
2022-11-24T20:31:54.568Z,1.80
2022-11-24T20:34:21.453Z,1.30
2022-11-24T20:36:48.032Z,1.33
2022-11-24T20:39:19.705Z,1.40
2022-11-24T20:41:46.309Z,1.30
2022-11-24T20:44:16.033Z,1.10
2022-11-24T20:46:43.379Z,1.00
2022-11-24T20:49:12.375Z,1.37
2022-11-24T20:51:39.720Z,1.63
2022-11-24T20:54:07.430Z,1.30
2022-11-24T20:56:35.536Z,1.33
2022-11-24T20:59:03.320Z,1.60
2022-11-24T21:01:31.696Z,1.20
2022-11-24T21:03:58.960Z,1.27
2022-11-24T21:06:26.129Z,1.00
2022-11-24T21:08:52.721Z,1.20
2022-11-24T21:11:19.363Z,1.50
2022-11-24T21:13:46.197Z,1.60
2022-11-24T21:16:18.805Z,1.20
2022-11-24T21:18:46.167Z,1.80
2022-11-24T21:21:13.308Z,1.57
2022-11-24T21:23:40.057Z,1.70
2022-11-24T21:26:13.073Z,1.53
2022-11-24T21:28:42.161Z,1.93
2022-11-24T21:31:16.989Z,1.80
2022-11-24T21:33:48.333Z,2.00
2022-11-24T21:36:17.608Z,1.90
2022-11-24T21:38:44.277Z,1.77
2022-11-24T21:41:11.624Z,1.80
2022-11-24T21:43:38.563Z,1.40
2022-11-24T21:46:10.444Z,1.77
2022-11-24T21:48:37.489Z,1.40
2022-11-24T21:51:05.644Z,1.77
2022-11-24T21:53:34.063Z,1.40
2022-11-24T21:56:02.405Z,1.67
2022-11-24T21:58:29.189Z,1.53
2022-11-24T22:01:03.364Z,1.60
2022-11-24T22:03:29.954Z,1.80
2022-11-24T22:05:57.362Z,1.30
2022-11-24T22:08:24.223Z,1.70
2022-11-24T22:10:50.859Z,1.50
2022-11-24T22:13:17.461Z,1.47
2022-11-24T22:15:44.161Z,1.60
2022-11-24T22:18:10.870Z,1.60
2022-11-24T22:20:37.652Z,1.20
2022-11-24T22:23:04.372Z,1.30
2022-11-24T22:25:30.982Z,1.37
2022-11-24T22:27:58.238Z,1.50
2022-11-24T22:30:24.804Z,1.30
2022-11-24T22:32:51.377Z,1.43
2022-11-24T22:35:17.960Z,1.30
2022-11-24T22:37:44.522Z,1.30
2022-11-24T22:40:11.338Z,1.50
2022-11-24T22:42:37.929Z,1.50
2022-11-24T22:45:04.978Z,1.40
2022-11-24T22:47:31.538Z,1.17
2022-11-24T22:49:58.108Z,1.70
2022-11-24T22:52:24.731Z,2.03
2022-11-24T22:54:51.309Z,1.80
2022-11-24T22:57:17.870Z,1.70
2022-11-24T22:59:44.449Z,1.57
2022-11-24T23:02:11.278Z,2.00
2022-11-24T23:04:38.051Z,2.17
2022-11-24T23:07:04.767Z,1.37
2022-11-24T23:09:31.346Z,1.50
2022-11-24T23:11:57.896Z,1.53
2022-11-24T23:14:26.499Z,1.50
2022-11-24T23:16:53.706Z,1.47
2022-11-24T23:19:20.283Z,1.63
2022-11-24T23:21:46.873Z,1.80
2022-11-24T23:24:13.472Z,1.60
2022-11-24T23:26:40.662Z,1.53
2022-11-24T23:29:07.677Z,1.77
2022-11-24T23:31:34.392Z,1.60
2022-11-24T23:34:02.336Z,1.47
2022-11-24T23:36:29.216Z,1.43
2022-11-24T23:38:55.795Z,1.40
2022-11-24T23:41:23.913Z,1.30
2022-11-24T23:43:50.730Z,1.37
2022-11-24T23:46:20.302Z,1.73
2022-11-24T23:48:47.165Z,1.50
2022-11-24T23:51:17.503Z,2.10
2022-11-24T23:53:44.263Z,1.47
2022-11-24T23:56:17.946Z,1.30
2022-11-24T23:58:44.598Z,1.43
